Nagano, Japan
Current Conditions -  °F | °C
As of 9:00 PM on Thursday 18 Dec 2014 (Local Time) from RJNT Reporting Station
Snow Showers Snow Showers  
Wind Chill: -3°   Ceiling: 3000
Heat Index:   Visibility: 6mi
Dew Point: -1°   Wind: 6mph
Humidity: 93%   Direction: 170°S
Pressure: 30.36"   Gusts: NA
Location:  36.65°N, 138.18°E
Report Text: RJNT 181200Z 17005KT 140V210 9999 -SHSN FEW010 SCT015 BKN030 00/M01 Q1028
Loading
Personal Weather Stations






























Interactive Weather Map New forecast layout! Learn more

10-Day Weather Forecast

Advertisements
Track Severe Weather on mobile